Time;durP1;ratioP1;P1;durP2;ratioP2;P2;SDS_P1;SDS_P2;PMS_P1;PMS_P2;Temp;Humidity;BMP_temperature;BMP_pressure;BME280_temperature;BME280_humidity;BME280_pressure;Samples;Min_cycle;Max_cycle;Signal;HPM_P1;HPM_P2
2022/05/26 00:02:21;;;;;;;0.90;0.70;;;26.70;58.90;;;;;;5094511;28;20472;-83
2022/05/26 00:04:48;;;;;;;1.00;0.80;;;26.60;58.80;;;;;;5095198;28;20482;-91
2022/05/26 00:07:15;;;;;;;0.97;0.77;;;26.60;58.90;;;;;;5094594;28;20456;-90
2022/05/26 00:09:42;;;;;;;1.00;0.70;;;26.60;58.90;;;;;;5094488;28;20443;-78
2022/05/26 00:12:11;;;;;;;0.90;0.70;;;26.60;58.90;;;;;;5093883;28;20570;-78
2022/05/26 00:14:38;;;;;;;1.40;0.60;;;26.60;58.90;;;;;;5094704;28;20440;-90
2022/05/26 00:17:05;;;;;;;0.90;0.70;;;26.60;59.00;;;;;;5094227;28;20436;-78
2022/05/26 00:19:34;;;;;;;1.00;0.60;;;26.60;59.00;;;;;;5094321;28;20443;-91
2022/05/26 00:22:00;;;;;;;1.73;0.77;;;26.60;59.00;;;;;;5094688;28;20464;-77
2022/05/26 00:24:27;;;;;;;1.00;0.70;;;26.60;59.00;;;;;;5094328;28;20440;-78
2022/05/26 00:26:54;;;;;;;1.60;0.77;;;26.60;59.00;;;;;;5093855;28;20440;-78
2022/05/26 00:29:21;;;;;;;1.00;0.80;;;26.60;59.00;;;;;;5094184;28;20942;-78
2022/05/26 00:31:48;;;;;;;0.93;0.77;;;26.60;59.10;;;;;;5094118;28;20436;-78
2022/05/26 00:34:14;;;;;;;0.90;0.70;;;26.60;59.10;;;;;;5094123;28;20442;-78
2022/05/26 00:36:43;;;;;;;1.83;0.90;;;26.60;59.10;;;;;;5093979;28;20460;-78
2022/05/26 00:39:13;;;;;;;1.00;0.70;;;26.60;59.10;;;;;;5094199;28;20436;-78
2022/05/26 00:41:44;;;;;;;0.90;0.60;;;26.60;59.10;;;;;;5093972;28;20439;-78
2022/05/26 00:44:11;;;;;;;1.10;0.80;;;26.60;59.20;;;;;;5094074;28;20432;-90
2022/05/26 00:46:43;;;;;;;0.90;0.60;;;26.60;59.10;;;;;;5093960;28;20789;-78
2022/05/26 00:49:17;;;;;;;1.10;0.80;;;26.60;59.10;;;;;;5093919;28;20436;-90
2022/05/26 00:51:47;;;;;;;1.00;0.70;;;26.60;59.10;;;;;;5093484;28;21024;-89
2022/05/26 00:54:19;;;;;;;0.90;0.70;;;26.60;59.20;;;;;;5094065;28;20436;-79
2022/05/26 00:56:52;;;;;;;1.00;0.80;;;26.60;59.20;;;;;;5093654;28;20440;-90
2022/05/26 00:59:24;;;;;;;1.10;0.83;;;26.60;59.20;;;;;;5093856;28;20447;-78
2022/05/26 01:01:51;;;;;;;1.00;0.80;;;26.60;59.20;;;;;;5093459;28;20475;-91
2022/05/26 01:04:21;;;;;;;1.00;0.80;;;26.60;59.20;;;;;;5093676;28;20448;-78
2022/05/26 01:06:56;;;;;;;0.90;0.70;;;26.60;59.20;;;;;;5093179;28;20462;-79
2022/05/26 01:09:23;;;;;;;0.90;0.67;;;26.60;59.20;;;;;;5093889;28;20450;-78
2022/05/26 01:11:49;;;;;;;1.00;0.80;;;26.60;59.20;;;;;;5093471;28;20875;-91
2022/05/26 01:14:19;;;;;;;1.00;0.80;;;26.60;59.20;;;;;;5093384;28;20512;-91
2022/05/26 01:16:57;;;;;;;1.20;0.80;;;26.60;59.30;;;;;;5093152;28;20794;-91
2022/05/26 01:20:08;;;;;;;1.30;1.07;;;26.60;59.30;;;;;;5093547;28;20439;-78
2022/05/26 01:22:59;;;;;;;1.00;0.73;;;26.60;59.20;;;;;;5092993;28;20444;-90
2022/05/26 01:25:48;;;;;;;0.90;0.70;;;26.60;59.30;;;;;;5091282;28;20459;-78
2022/05/26 01:28:27;;;;;;;1.00;0.83;;;26.60;59.30;;;;;;5093414;28;20444;-78
2022/05/26 01:31:01;;;;;;;0.90;0.70;;;26.50;59.30;;;;;;5093534;28;20447;-78
2022/05/26 01:33:44;;;;;;;1.10;0.70;;;26.50;59.30;;;;;;5093307;28;20491;-78
2022/05/26 01:36:25;;;;;;;1.10;0.70;;;26.60;59.30;;;;;;5093281;28;20436;-78
2022/05/26 01:39:04;;;;;;;1.03;0.80;;;26.50;59.20;;;;;;5093457;28;20923;-91
2022/05/26 01:41:49;;;;;;;1.00;0.70;;;26.50;59.20;;;;;;5093049;28;20436;-78
2022/05/26 01:44:23;;;;;;;1.10;0.70;;;26.50;59.30;;;;;;5093336;28;20930;-78
2022/05/26 01:46:50;;;;;;;1.00;0.80;;;26.50;59.30;;;;;;5093158;28;20444;-91
2022/05/26 01:49:23;;;;;;;1.00;0.70;;;26.50;59.30;;;;;;5093140;28;20938;-78
2022/05/26 01:51:57;;;;;;;1.60;0.80;;;26.50;59.90;;;;;;5092926;28;20501;-91
2022/05/26 01:54:30;;;;;;;1.37;0.70;;;26.50;59.40;;;;;;5093231;28;20487;-78
2022/05/26 01:57:03;;;;;;;0.90;0.60;;;26.50;59.40;;;;;;5093027;28;20439;-78
2022/05/26 01:59:35;;;;;;;1.03;0.80;;;26.50;59.40;;;;;;5093442;28;20436;-78
2022/05/26 02:02:06;;;;;;;1.20;0.80;;;26.50;59.40;;;;;;5092821;28;20468;-77
2022/05/26 02:04:37;;;;;;;0.97;0.77;;;26.50;60.00;;;;;;5093128;28;20439;-78
2022/05/26 02:07:10;;;;;;;1.00;0.80;;;26.50;59.40;;;;;;5092870;28;20452;-91
2022/05/26 02:09:41;;;;;;;0.90;0.70;;;26.50;59.40;;;;;;5093287;28;20448;-78
2022/05/26 02:12:11;;;;;;;1.20;0.63;;;26.50;59.40;;;;;;5093070;28;20450;-87
2022/05/26 02:14:44;;;;;;;0.90;0.70;;;26.50;60.00;;;;;;5093041;28;20439;-91
2022/05/26 02:17:15;;;;;;;0.90;0.80;;;26.50;59.40;;;;;;5093132;28;20472;-90
2022/05/26 02:19:48;;;;;;;0.97;0.60;;;26.50;59.40;;;;;;5093108;28;20439;-78
2022/05/26 02:22:20;;;;;;;1.00;0.70;;;26.60;59.50;;;;;;5093189;28;20930;-78
2022/05/26 02:24:52;;;;;;;1.00;0.70;;;26.50;59.50;;;;;;5093049;28;20447;-90
2022/05/26 02:27:19;;;;;;;1.00;0.70;;;26.50;59.50;;;;;;5092917;28;20444;-77
2022/05/26 02:29:56;;;;;;;1.00;0.70;;;26.50;59.50;;;;;;5091767;28;20428;-79
2022/05/26 02:32:25;;;;;;;0.90;0.70;;;26.50;59.50;;;;;;5092826;28;20852;-78
2022/05/26 02:34:56;;;;;;;0.90;0.70;;;26.50;59.50;;;;;;5095420;28;20522;-78
2022/05/26 02:37:25;;;;;;;1.00;0.80;;;26.50;59.50;;;;;;5096197;28;20459;-78
2022/05/26 02:39:52;;;;;;;1.00;0.70;;;26.50;59.50;;;;;;5096411;28;20447;-91
2022/05/26 02:42:20;;;;;;;0.90;0.70;;;26.50;59.50;;;;;;5096225;28;20436;-78
2022/05/26 02:44:47;;;;;;;0.90;0.73;;;26.50;59.50;;;;;;5096028;28;20436;-78
2022/05/26 02:47:40;;;;;;;1.03;0.80;;;26.50;59.50;;;;;;5095668;28;20432;-78
2022/05/26 02:50:26;;;;;;;1.00;0.70;;;26.50;59.50;;;;;;5093954;28;20439;-78
2022/05/26 02:53:04;;;;;;;1.00;0.70;;;26.50;59.50;;;;;;5096264;28;20487;-91
2022/05/26 02:55:43;;;;;;;1.67;0.80;;;26.50;59.50;;;;;;5095978;28;20440;-78
2022/05/26 02:58:14;;;;;;;1.00;0.70;;;26.50;59.60;;;;;;5096093;28;20451;-78
2022/05/26 03:00:51;;;;;;;1.00;0.70;;;26.50;59.60;;;;;;5096129;28;20802;-77
2022/05/26 03:03:26;;;;;;;1.03;0.77;;;26.50;59.60;;;;;;5095738;28;20440;-78
2022/05/26 03:06:00;;;;;;;0.90;0.70;;;26.50;59.50;;;;;;5095571;28;20439;-79
2022/05/26 03:08:30;;;;;;;1.27;0.90;;;26.50;59.60;;;;;;5095953;28;20443;-78
2022/05/26 03:11:05;;;;;;;1.37;0.70;;;26.50;59.60;;;;;;5095655;28;20451;-89
2022/05/26 03:13:32;;;;;;;0.90;0.73;;;26.50;59.60;;;;;;5095759;28;20475;-78
2022/05/26 03:15:59;;;;;;;1.03;0.70;;;26.50;59.60;;;;;;5095583;28;20797;-91
2022/05/26 03:18:26;;;;;;;0.90;0.70;;;26.50;59.60;;;;;;5095268;28;20795;-80
2022/05/26 03:20:54;;;;;;;1.03;0.87;;;26.50;59.60;;;;;;5095485;28;20447;-78
2022/05/26 03:23:21;;;;;;;1.10;0.70;;;26.50;59.60;;;;;;5095480;28;20436;-78
2022/05/26 03:25:48;;;;;;;1.00;0.73;;;26.60;59.70;;;;;;5095446;28;20443;-78
2022/05/26 03:28:15;;;;;;;1.33;0.70;;;26.60;59.70;;;;;;5095337;28;20443;-79
2022/05/26 03:30:41;;;;;;;1.00;0.70;;;26.50;59.60;;;;;;5095439;28;20462;-78
2022/05/26 03:33:08;;;;;;;1.30;0.80;;;26.50;59.60;;;;;;5095379;28;20487;-78
2022/05/26 03:41:08;;;;;;;1.00;0.70;;;26.50;59.70;;;;;;5095013;28;20494;-90
2022/05/26 03:43:38;;;;;;;1.10;0.80;;;26.50;59.70;;;;;;5095107;28;20439;-79
2022/05/26 03:46:06;;;;;;;1.00;0.70;;;26.50;59.70;;;;;;5094381;28;20443;-77
2022/05/26 03:48:32;;;;;;;1.67;0.70;;;26.50;59.70;;;;;;5094923;28;20440;-78
2022/05/26 03:50:59;;;;;;;1.00;0.70;;;26.50;59.70;;;;;;5094534;28;20440;-78
2022/05/26 03:53:27;;;;;;;1.00;0.70;;;26.50;59.70;;;;;;5095020;28;20476;-78
2022/05/26 03:55:54;;;;;;;0.90;0.60;;;26.50;59.70;;;;;;5094647;28;20800;-91
2022/05/26 03:58:21;;;;;;;1.10;0.87;;;26.50;59.70;;;;;;5094754;28;20436;-90
2022/05/26 04:00:48;;;;;;;1.00;0.80;;;26.50;60.50;;;;;;5094671;28;20497;-77
2022/05/26 04:03:15;;;;;;;0.90;0.70;;;26.50;59.70;;;;;;5094545;28;20467;-78
2022/05/26 04:05:41;;;;;;;1.03;0.80;;;26.50;59.70;;;;;;5094515;28;20436;-78
2022/05/26 04:08:09;;;;;;;0.90;0.70;;;26.50;59.80;;;;;;5094470;28;20459;-78
2022/05/26 04:10:37;;;;;;;1.00;0.70;;;26.50;59.80;;;;;;5094624;28;20436;-78
2022/05/26 04:13:04;;;;;;;0.90;0.70;;;26.50;60.50;;;;;;5094489;28;20432;-77
2022/05/26 04:15:31;;;;;;;1.00;0.73;;;26.50;59.70;;;;;;5094281;28;20845;-77
2022/05/26 04:17:58;;;;;;;1.00;0.80;;;26.40;59.70;;;;;;5094389;28;20440;-78
2022/05/26 04:20:25;;;;;;;1.00;0.80;;;26.50;59.80;;;;;;5094288;28;20436;-78
2022/05/26 04:22:52;;;;;;;1.10;0.73;;;26.40;59.70;;;;;;5094187;28;20444;-82
2022/05/26 04:25:20;;;;;;;0.97;0.70;;;26.40;59.70;;;;;;5094304;28;20447;-90
2022/05/26 04:27:48;;;;;;;1.00;0.70;;;26.40;59.80;;;;;;5094130;28;20443;-78
2022/05/26 04:30:15;;;;;;;0.93;0.70;;;26.50;59.80;;;;;;5094202;28;20436;-78
2022/05/26 04:32:42;;;;;;;1.00;0.80;;;26.40;59.80;;;;;;5094455;28;20442;-78
2022/05/26 04:35:10;;;;;;;1.00;0.80;;;26.40;59.80;;;;;;5094324;28;20492;-78
2022/05/26 04:37:37;;;;;;;1.00;0.70;;;26.40;59.80;;;;;;5094055;28;20470;-77
2022/05/26 04:40:06;;;;;;;1.10;0.90;;;26.40;59.80;;;;;;5093817;28;20519;-85
2022/05/26 04:42:33;;;;;;;0.93;0.70;;;26.40;59.80;;;;;;5094097;28;20432;-78
2022/05/26 04:45:01;;;;;;;1.20;0.80;;;26.40;59.80;;;;;;5093598;28;20440;-78
2022/05/26 04:47:27;;;;;;;0.90;0.70;;;26.40;59.80;;;;;;5093834;28;20440;-78
2022/05/26 04:49:54;;;;;;;0.90;0.77;;;26.40;59.80;;;;;;5094042;28;20447;-86
2022/05/26 04:52:23;;;;;;;1.10;0.80;;;26.40;59.90;;;;;;5093789;28;20436;-78
2022/05/26 04:54:52;;;;;;;1.00;0.80;;;26.40;59.90;;;;;;5093831;28;20484;-90
2022/05/26 04:57:21;;;;;;;1.00;0.70;;;26.40;59.90;;;;;;5093909;28;20480;-77
2022/05/26 04:59:48;;;;;;;1.10;0.80;;;26.40;59.90;;;;;;5093869;28;20436;-77
2022/05/26 05:02:18;;;;;;;1.00;0.70;;;26.40;59.90;;;;;;5093561;28;20475;-78
2022/05/26 05:04:48;;;;;;;1.00;0.70;;;26.40;59.90;;;;;;5093262;28;20436;-78
2022/05/26 05:07:15;;;;;;;1.00;0.90;;;26.40;59.90;;;;;;5093733;28;20455;-78
2022/05/26 05:09:42;;;;;;;0.90;0.80;;;26.40;59.90;;;;;;5093691;28;20795;-78
2022/05/26 05:12:13;;;;;;;1.00;0.80;;;26.40;59.90;;;;;;5093582;28;20440;-78
2022/05/26 05:14:42;;;;;;;1.00;0.80;;;26.40;59.90;;;;;;5093669;28;20847;-78
2022/05/26 05:17:09;;;;;;;0.93;0.70;;;26.40;60.00;;;;;;5093574;28;20468;-77
2022/05/26 05:19:38;;;;;;;1.07;0.70;;;26.40;60.00;;;;;;5093431;28;20439;-78
2022/05/26 05:22:10;;;;;;;1.10;0.90;;;26.40;60.00;;;;;;5093530;28;20439;-84
2022/05/26 05:24:42;;;;;;;1.10;0.90;;;26.40;60.00;;;;;;5093474;28;20440;-77
2022/05/26 05:27:14;;;;;;;1.00;0.80;;;26.40;60.00;;;;;;5093263;28;20435;-78
2022/05/26 05:33:07;;;;;;;1.00;0.70;;;26.40;60.00;;;;;;5092348;28;20407;-77
2022/05/26 05:35:40;;;;;;;1.00;0.80;;;26.40;60.20;;;;;;5090227;28;20483;-78
2022/05/26 05:38:07;;;;;;;1.10;0.90;;;26.40;60.10;;;;;;5092519;28;20794;-77
2022/05/26 05:40:35;;;;;;;1.10;0.80;;;26.40;60.10;;;;;;5092604;28;20436;-77
2022/05/26 05:43:02;;;;;;;1.27;0.90;;;26.40;60.10;;;;;;5092561;28;20428;-89
2022/05/26 05:45:29;;;;;;;1.00;0.80;;;26.40;60.10;;;;;;5092309;28;20462;-77
2022/05/26 05:47:56;;;;;;;1.10;0.83;;;26.40;60.20;;;;;;5092209;28;20443;-77
2022/05/26 05:50:22;;;;;;;1.10;0.80;;;26.40;60.10;;;;;;5092312;28;20440;-78
2022/05/26 05:52:51;;;;;;;1.00;0.80;;;26.40;60.10;;;;;;5091505;28;20439;-86
2022/05/26 05:55:17;;;;;;;1.00;0.80;;;26.40;60.10;;;;;;5090334;28;20994;-77
2022/05/26 05:57:45;;;;;;;1.00;0.80;;;26.40;60.10;;;;;;5093516;28;20459;-91
2022/05/26 06:00:13;;;;;;;1.10;0.80;;;26.40;60.20;;;;;;5093356;28;20440;-91
2022/05/26 06:02:40;;;;;;;1.00;0.80;;;26.40;60.20;;;;;;5092972;28;20468;-91
2022/05/26 06:05:08;;;;;;;1.10;0.90;;;26.40;60.20;;;;;;5093524;28;20436;-79
2022/05/26 06:07:37;;;;;;;1.20;1.10;;;26.40;60.20;;;;;;5093402;28;20451;-84
2022/05/26 06:10:08;;;;;;;1.00;0.80;;;26.50;60.30;;;;;;5096606;28;20440;-85
2022/05/26 06:12:36;;;;;;;1.20;1.00;;;26.40;60.20;;;;;;5097074;28;20957;-78
2022/05/26 06:15:04;;;;;;;1.00;0.80;;;26.40;60.20;;;;;;5096188;28;20484;-79
2022/05/26 06:21:02;;;;;;;1.23;0.90;;;26.40;60.20;;;;;;5093760;28;20391;-89
2022/05/26 06:23:28;;;;;;;1.00;0.90;;;26.30;60.50;;;;;;5094134;28;20436;-77
2022/05/26 06:37:28;;;;;;;1.00;0.90;;;26.40;60.40;;;;;;5096501;28;20481;-78
2022/05/26 06:39:56;;;;;;;1.10;0.90;;;26.30;60.40;;;;;;5095814;28;20500;-78
2022/05/26 06:42:24;;;;;;;1.10;1.00;;;26.30;60.30;;;;;;5076028;28;20784;-78
2022/05/26 06:44:52;;;;;;;1.30;1.20;;;26.30;60.30;;;;;;5076259;28;20459;-89
2022/05/26 06:47:23;;;;;;;1.10;0.90;;;26.30;60.30;;;;;;5075830;28;20447;-89
2022/05/26 06:49:50;;;;;;;1.20;1.10;;;26.30;60.30;;;;;;5076025;28;20437;-90
2022/05/26 06:52:19;;;;;;;1.07;0.97;;;26.50;60.40;;;;;;5075962;28;20440;-78
2022/05/26 06:54:47;;;;;;;1.33;1.23;;;26.30;60.30;;;;;;5075963;28;20983;-78
2022/05/26 06:57:16;;;;;;;1.43;1.07;;;26.30;60.30;;;;;;5075803;28;20444;-78
2022/05/26 06:59:43;;;;;;;1.10;0.90;;;26.30;60.30;;;;;;5075941;28;20441;-89
2022/05/26 07:02:13;;;;;;;1.10;1.00;;;26.30;60.30;;;;;;5075426;28;20515;-92
2022/05/26 07:04:42;;;;;;;1.20;1.10;;;26.30;60.30;;;;;;5093650;28;20449;-84
2022/05/26 07:07:09;;;;;;;1.23;1.10;;;26.40;60.70;;;;;;5095342;28;20605;-85
2022/05/26 07:09:36;;;;;;;2.03;1.93;;;26.30;60.70;;;;;;5095428;28;20471;-82
2022/05/26 07:12:03;;;;;;;2.90;2.07;;;26.30;61.20;;;;;;5095707;28;20446;-84
2022/05/26 07:14:30;;;;;;;7.63;3.97;;;26.30;61.40;;;;;;5095721;28;20564;-82
2022/05/26 07:16:57;;;;;;;8.27;3.70;;;26.30;62.00;;;;;;5095651;28;20448;-83
2022/05/26 07:19:25;;;;;;;9.00;4.83;;;26.30;62.60;;;;;;5094381;28;20432;-83
2022/05/26 07:21:52;;;;;;;7.93;4.20;;;26.20;63.00;;;;;;5094773;28;20443;-83
2022/05/26 07:24:20;;;;;;;8.63;5.07;;;26.20;63.20;;;;;;5095808;28;20436;-83
2022/05/26 07:26:48;;;;;;;7.10;4.93;;;26.20;63.10;;;;;;5095677;28;20789;-83
2022/05/26 07:29:15;;;;;;;7.90;4.70;;;26.10;63.20;;;;;;5095529;28;20435;-83
2022/05/26 07:31:42;;;;;;;7.27;4.87;;;26.10;63.30;;;;;;5095762;28;20442;-83
2022/05/26 07:34:09;;;;;;;7.90;4.97;;;26.10;63.40;;;;;;5095669;28;20479;-83
2022/05/26 07:42:09;;;;;;;7.90;5.33;;;26.10;63.50;;;;;;5095471;28;20435;-83
2022/05/26 07:44:39;;;;;;;8.13;5.07;;;26.10;63.60;;;;;;5095689;28;20440;-83
2022/05/26 07:47:08;;;;;;;6.47;4.37;;;26.10;63.60;;;;;;5095328;28;20814;-83
2022/05/26 07:49:35;;;;;;;4.10;3.70;;;26.20;63.50;;;;;;5095121;28;21093;-83
2022/05/26 07:52:03;;;;;;;4.37;3.63;;;26.20;63.50;;;;;;5095372;28;20794;-83
2022/05/26 07:54:30;;;;;;;3.87;3.50;;;26.20;63.30;;;;;;5094897;28;20483;-83
2022/05/26 07:56:58;;;;;;;4.50;4.10;;;26.20;63.20;;;;;;5095042;28;20436;-83
2022/05/26 07:59:25;;;;;;;7.93;3.93;;;26.30;63.20;;;;;;5095101;28;20448;-83
2022/05/26 08:01:53;;;;;;;4.57;3.03;;;26.30;63.10;;;;;;5094642;28;20468;-83
2022/05/26 08:04:20;;;;;;;9.93;4.50;;;26.30;63.10;;;;;;5095178;28;20448;-82
2022/05/26 08:06:48;;;;;;;6.10;5.60;;;26.20;63.40;;;;;;5095089;28;20491;-81
2022/05/26 08:09:20;;;;;;;9.27;6.00;;;26.20;64.00;;;;;;5094471;28;20449;-80
2022/05/26 08:11:47;;;;;;;7.77;6.17;;;26.30;63.20;;;;;;5094472;28;20792;-81
2022/05/26 08:14:15;;;;;;;7.00;5.60;;;26.20;62.90;;;;;;5094200;28;20447;-80
2022/05/26 08:16:42;;;;;;;9.10;7.07;;;26.30;62.70;;;;;;5094417;28;20454;-81
2022/05/26 08:19:09;;;;;;;6.37;5.50;;;26.10;62.40;;;;;;5094055;28;21010;-81
2022/05/26 08:21:36;;;;;;;5.67;5.10;;;26.10;62.50;;;;;;5094173;28;20793;-82
2022/05/26 08:24:04;;;;;;;6.07;5.57;;;26.10;62.60;;;;;;5094339;28;20440;-80
2022/05/26 08:26:33;;;;;;;11.20;5.57;;;26.10;62.80;;;;;;5093498;28;20490;-81
2022/05/26 08:28:59;;;;;;;5.70;5.03;;;26.10;62.80;;;;;;5092708;28;20475;-82
2022/05/26 08:31:26;;;;;;;8.40;5.23;;;26.10;63.00;;;;;;5093067;28;20428;-83
2022/05/26 08:33:53;;;;;;;5.80;5.30;;;26.00;62.80;;;;;;5094363;28;20439;-81
2022/05/26 08:36:23;;;;;;;6.53;5.57;;;26.00;62.80;;;;;;5094135;28;20487;-82
2022/05/26 08:38:50;;;;;;;10.37;5.40;;;26.00;62.90;;;;;;5094152;28;20501;-82
2022/05/26 08:41:20;;;;;;;8.33;5.93;;;26.00;62.80;;;;;;5093240;28;20911;-81
2022/05/26 08:43:54;;;;;;;6.70;6.10;;;26.00;62.90;;;;;;5093544;28;20473;-82
2022/05/26 08:46:21;;;;;;;9.13;5.87;;;26.00;63.00;;;;;;5094065;28;20497;-82
2022/05/26 08:48:55;;;;;;;6.80;5.30;;;26.00;63.10;;;;;;5093823;28;20795;-89
2022/05/26 08:51:30;;;;;;;6.70;5.40;;;26.00;62.80;;;;;;5092649;28;20440;-88
2022/05/26 08:53:58;;;;;;;7.43;5.00;;;26.00;62.90;;;;;;5093791;28;20534;-87
2022/05/26 08:56:28;;;;;;;5.93;5.33;;;26.00;62.90;;;;;;5093382;28;20488;-87
2022/05/26 08:59:03;;;;;;;6.27;5.33;;;26.00;62.70;;;;;;5093589;28;20444;-86
2022/05/26 09:01:32;;;;;;;6.23;5.63;;;26.00;62.50;;;;;;5093395;28;20481;-84
2022/05/26 09:04:00;;;;;;;5.63;4.57;;;26.00;62.50;;;;;;5093385;28;20509;-84
2022/05/26 09:06:27;;;;;;;12.23;4.80;;;26.10;62.70;;;;;;5093698;28;20486;-84
2022/05/26 09:14:33;;;;;;;4.70;4.23;;;26.10;62.60;;;;;;5073402;28;20424;-85
2022/05/26 09:17:05;;;;;;;5.87;4.33;;;26.10;62.50;;;;;;5082025;28;20943;-84
2022/05/26 09:19:46;;;;;;;4.80;4.40;;;26.20;62.50;;;;;;5093562;28;20444;-84
2022/05/26 09:22:27;;;;;;;7.40;3.90;;;26.10;62.80;;;;;;5093275;28;20455;-83
2022/05/26 09:24:54;;;;;;;5.53;4.30;;;26.20;62.50;;;;;;5093807;28;20446;-84
2022/05/26 09:27:28;;;;;;;8.97;4.30;;;26.20;62.20;;;;;;5093532;28;20447;-84
2022/05/26 09:30:17;;;;;;;4.23;3.93;;;26.20;62.00;;;;;;5093556;28;20838;-84
2022/05/26 09:32:44;;;;;;;5.93;4.30;;;26.20;62.00;;;;;;5093615;28;20436;-84
2022/05/26 09:35:15;;;;;;;10.50;4.10;;;26.30;62.20;;;;;;5092850;28;20480;-80
2022/05/26 09:37:44;;;;;;;5.20;4.00;;;26.30;62.00;;;;;;5092186;28;20447;-79
2022/05/26 09:40:16;;;;;;;5.50;3.90;;;26.40;61.80;;;;;;5092755;28;20809;-80
2022/05/26 09:42:44;;;;;;;5.13;3.70;;;26.50;61.70;;;;;;5091823;28;20447;-89
2022/05/26 09:45:16;;;;;;;4.93;3.53;;;26.50;61.60;;;;;;5094941;28;20491;-80
2022/05/26 09:47:53;;;;;;;6.27;3.67;;;26.50;61.50;;;;;;5095914;28;20923;-90
2022/05/26 09:50:40;;;;;;;5.27;3.87;;;26.50;61.40;;;;;;5095986;28;20447;-80
2022/05/26 09:53:09;;;;;;;4.00;3.70;;;26.60;61.40;;;;;;5096323;28;20973;-80
2022/05/26 09:55:43;;;;;;;5.10;3.80;;;26.60;61.50;;;;;;5095868;28;20845;-80
2022/05/26 09:58:12;;;;;;;7.87;3.23;;;26.60;61.40;;;;;;5096470;28;20443;-80
2022/05/26 10:00:42;;;;;;;4.60;3.50;;;26.60;61.40;;;;;;5096841;28;20443;-80
2022/05/26 10:03:20;;;;;;;3.73;3.37;;;26.60;61.30;;;;;;5096966;28;20468;-79
2022/05/26 10:05:51;;;;;;;7.27;3.47;;;26.70;61.30;;;;;;5096977;28;20455;-80
2022/05/26 10:08:26;;;;;;;3.97;3.30;;;26.70;61.20;;;;;;5096885;28;20447;-90
2022/05/26 10:10:59;;;;;;;4.30;3.90;;;26.70;61.30;;;;;;5097005;28;20439;-90
2022/05/26 10:13:40;;;;;;;8.90;3.57;;;26.70;61.20;;;;;;5096894;28;20444;-80
2022/05/26 10:16:17;;;;;;;3.80;2.87;;;26.70;61.10;;;;;;5096845;28;20506;-80
2022/05/26 10:19:04;;;;;;;5.30;3.60;;;26.70;61.20;;;;;;5096703;28;21045;-80
2022/05/26 10:21:46;;;;;;;3.30;3.00;;;26.70;61.20;;;;;;5096758;28;20947;-90
2022/05/26 10:24:43;;;;;;;2.97;2.77;;;26.80;61.30;;;;;;5096522;28;20451;-88
2022/05/26 10:27:19;;;;;;;3.30;3.10;;;26.80;61.30;;;;;;5081209;28;20455;-79
2022/05/26 10:30:01;;;;;;;5.57;3.20;;;26.80;61.30;;;;;;5095243;28;20436;-82
2022/05/26 10:32:38;;;;;;;3.47;2.90;;;26.80;61.20;;;;;;5096739;28;20439;-80
2022/05/26 10:35:23;;;;;;;3.17;2.97;;;26.80;61.20;;;;;;5096249;28;20479;-89
2022/05/26 10:38:08;;;;;;;3.43;3.03;;;26.80;61.10;;;;;;5096469;28;20448;-80
2022/05/26 10:40:44;;;;;;;2.87;2.57;;;26.80;61.20;;;;;;5096585;28;20439;-80
2022/05/26 10:43:18;;;;;;;5.37;3.10;;;26.80;61.20;;;;;;5096541;28;20431;-90
2022/05/26 10:45:48;;;;;;;3.23;3.00;;;26.80;61.20;;;;;;5096272;28;20440;-80
2022/05/26 10:48:25;;;;;;;2.90;2.70;;;26.80;61.10;;;;;;5096127;28;20448;-80
2022/05/26 10:50:58;;;;;;;3.13;2.90;;;26.90;61.10;;;;;;5096391;28;20435;-81
2022/05/26 10:53:32;;;;;;;2.90;2.70;;;26.90;61.10;;;;;;5096262;28;20554;-80
2022/05/26 10:56:05;;;;;;;2.60;2.40;;;26.90;61.10;;;;;;5095758;28;20492;-79
2022/05/26 10:58:35;;;;;;;2.30;2.13;;;26.90;61.10;;;;;;5096098;28;20444;-80
2022/05/26 11:01:09;;;;;;;5.43;2.93;;;26.90;61.00;;;;;;5095728;28;20440;-80
2022/05/26 11:03:41;;;;;;;2.87;2.17;;;26.90;61.00;;;;;;5095908;28;20436;-80
2022/05/26 11:06:12;;;;;;;2.43;2.23;;;26.90;61.00;;;;;;5096061;28;20463;-80
2022/05/26 11:08:42;;;;;;;3.27;3.07;;;26.90;61.10;;;;;;5096139;28;20520;-85
2022/05/26 11:11:14;;;;;;;2.77;2.47;;;26.90;61.10;;;;;;5095998;28;20428;-90
2022/05/26 11:13:54;;;;;;;2.80;2.60;;;26.90;61.10;;;;;;5095785;28;20432;-80
2022/05/26 11:19:33;;;;;;;2.00;1.90;;;26.90;61.00;;;;;;5095798;28;20513;-86
2022/05/26 11:22:01;;;;;;;2.47;2.27;;;26.90;61.10;;;;;;5095722;28;20934;-80
2022/05/26 11:24:28;;;;;;;2.57;2.23;;;26.90;61.10;;;;;;5095576;28;20436;-80
2022/05/26 11:27:00;;;;;;;2.20;2.10;;;26.90;61.10;;;;;;5095702;28;20439;-80
2022/05/26 11:29:31;;;;;;;3.30;2.87;;;26.90;61.00;;;;;;5095364;28;20443;-83
2022/05/26 11:37:57;;;;;;;2.60;2.40;;;26.90;61.10;;;;;;5095023;28;20427;-80
2022/05/26 11:40:32;;;;;;;2.47;2.17;;;26.90;61.10;;;;;;5095550;28;20441;-85
2022/05/26 11:42:59;;;;;;;2.63;2.43;;;26.90;61.10;;;;;;5095259;28;20427;-80
2022/05/26 11:45:29;;;;;;;3.10;2.63;;;26.90;61.10;;;;;;5095313;28;20459;-80
2022/05/26 11:47:59;;;;;;;2.33;2.17;;;26.90;61.00;;;;;;5095086;28;20436;-80
2022/05/26 11:50:56;;;;;;;4.50;2.77;;;26.90;61.00;;;;;;5095193;28;20440;-80
2022/05/26 11:53:39;;;;;;;2.30;2.10;;;26.90;61.00;;;;;;5095387;28;20439;-86
2022/05/26 11:56:40;;;;;;;2.33;2.23;;;26.90;61.10;;;;;;5094947;28;20497;-80
2022/05/26 11:59:46;;;;;;;2.00;1.90;;;26.90;61.00;;;;;;5092594;28;20443;-80
2022/05/26 12:02:38;;;;;;;2.13;1.93;;;26.90;61.00;;;;;;5094767;28;20966;-89
2022/05/26 12:05:43;;;;;;;2.87;2.67;;;27.00;60.90;;;;;;5094741;28;20856;-80
2022/05/26 12:08:29;;;;;;;2.30;2.20;;;27.00;60.80;;;;;;5094467;28;20440;-80
2022/05/26 12:10:58;;;;;;;2.10;1.90;;;27.00;60.90;;;;;;5094841;28;20470;-90
2022/05/26 12:13:32;;;;;;;2.30;2.20;;;26.90;60.90;;;;;;5094843;28;20458;-80
2022/05/26 12:16:22;;;;;;;2.20;2.00;;;27.00;61.00;;;;;;5094731;28;20471;-80
2022/05/26 12:18:54;;;;;;;3.00;2.80;;;27.00;60.90;;;;;;5094563;28;20938;-80
2022/05/26 12:21:38;;;;;;;2.50;2.40;;;27.10;61.00;;;;;;5094555;28;20443;-80
2022/05/26 12:24:43;;;;;;;2.30;2.10;;;27.10;60.90;;;;;;5094645;28;20467;-80
2022/05/26 12:27:09;;;;;;;3.00;2.37;;;27.10;60.80;;;;;;5094475;28;20446;-81
2022/05/26 12:29:59;;;;;;;2.27;2.07;;;27.10;60.90;;;;;;5094223;28;20440;-80
2022/05/26 12:32:27;;;;;;;3.10;2.30;;;27.10;60.90;;;;;;5094563;28;20444;-81
2022/05/26 12:35:14;;;;;;;3.27;2.27;;;27.10;60.90;;;;;;5094412;28;20440;-90
2022/05/26 12:37:58;;;;;;;1.80;1.70;;;27.10;60.90;;;;;;5094115;28;20941;-80
2022/05/26 12:40:49;;;;;;;2.00;1.90;;;27.10;60.90;;;;;;5094244;28;20436;-89
2022/05/26 12:43:33;;;;;;;2.00;1.90;;;27.10;60.90;;;;;;5094144;28;20439;-81
2022/05/26 12:46:20;;;;;;;2.37;2.17;;;27.10;60.90;;;;;;5094065;28;20801;-79
2022/05/26 12:49:01;;;;;;;2.20;2.00;;;27.10;60.90;;;;;;5094072;28;20439;-90
2022/05/26 12:51:34;;;;;;;1.90;1.80;;;27.10;60.90;;;;;;5093963;28;20824;-80
2022/05/26 12:54:05;;;;;;;2.13;2.00;;;27.10;60.90;;;;;;5093896;28;20439;-90
2022/05/26 12:56:46;;;;;;;1.97;1.87;;;27.10;60.90;;;;;;5093712;28;20483;-88
2022/05/26 12:59:15;;;;;;;2.53;2.27;;;27.10;60.80;;;;;;5093911;28;20435;-89
2022/05/26 13:01:42;;;;;;;2.10;2.00;;;27.10;60.90;;;;;;5093671;28;20549;-82
2022/05/26 13:04:11;;;;;;;1.93;1.83;;;27.00;60.80;;;;;;5094038;28;20436;-79
2022/05/26 13:06:42;;;;;;;1.93;1.60;;;27.10;60.90;;;;;;5093678;28;20452;-90
2022/05/26 13:09:15;;;;;;;1.97;1.87;;;27.10;60.90;;;;;;5093771;28;20439;-79
2022/05/26 13:11:46;;;;;;;2.13;1.50;;;27.10;60.90;;;;;;5093648;28;20436;-80
2022/05/26 13:14:30;;;;;;;2.37;1.77;;;27.20;60.90;;;;;;5093880;28;20440;-87
2022/05/26 13:17:02;;;;;;;1.90;1.80;;;27.10;60.80;;;;;;5093700;28;20519;-90
2022/05/26 13:19:30;;;;;;;2.03;1.83;;;27.10;60.80;;;;;;5092719;28;20440;-79
2022/05/26 13:21:59;;;;;;;2.47;2.27;;;27.10;60.90;;;;;;5093673;28;20463;-80
2022/05/26 13:24:28;;;;;;;2.20;2.00;;;27.10;60.90;;;;;;5093533;28;20432;-80
2022/05/26 13:26:58;;;;;;;2.00;1.90;;;27.10;60.80;;;;;;5093425;28;20447;-80
2022/05/26 13:29:26;;;;;;;2.40;2.20;;;27.10;60.90;;;;;;5093355;28;20798;-90
2022/05/26 13:34:45;;;;;;;1.60;1.47;;;27.10;60.80;;;;;;5093857;28;20562;-80
2022/05/26 13:37:21;;;;;;;2.20;1.90;;;27.10;60.80;;;;;;5093349;28;20479;-84
2022/05/26 13:40:08;;;;;;;2.00;1.90;;;27.10;60.80;;;;;;5093443;28;20440;-83
2022/05/26 13:42:36;;;;;;;2.20;2.10;;;27.20;60.80;;;;;;5093451;28;20444;-80
2022/05/26 13:45:05;;;;;;;2.00;1.90;;;27.10;60.80;;;;;;5093311;28;20497;-79
2022/05/26 13:47:32;;;;;;;1.70;1.60;;;27.20;60.90;;;;;;5093228;28;20448;-80
2022/05/26 13:50:01;;;;;;;1.80;1.70;;;27.20;60.70;;;;;;5093111;28;20939;-79
2022/05/26 13:52:31;;;;;;;1.80;1.70;;;27.20;60.70;;;;;;5093316;28;20444;-88
2022/05/26 13:55:00;;;;;;;2.47;1.70;;;27.20;60.90;;;;;;5093260;28;20493;-80
2022/05/26 13:57:30;;;;;;;1.80;1.70;;;27.20;60.80;;;;;;5092974;28;20846;-80